AFR604 TFFF-SOCA
Flight info
| Callsign | AFR604 |
|---|---|
| Flight time | 1h 54m |
| Altitude | 37000 |
| Route | BORUS2R BORUS A555 BGI UA555 TRAPP UM786 KALEP KALEP1U |
| Aircraft | A320/M-SDE2E3FGIJ1RWY/HB1 |
Departure
| Time | 2026-05-04 19:59 |
|---|---|
| Airport | Martinique Aimé Césaire International Airport (TFFF) |
Arrival
| Time | 2026-05-04 21:53 |
|---|---|
| Airport | Cayenne – Félix Eboué Airport (SOCA) |
| Time | Latitude | Longitude | Altitude | Speed | Heading |
|---|---|---|---|---|---|
| 2026-05-04 19:02 | 14.59453 | -61.00042 | 18 ft | 0 kts | 20° |
| 2026-05-04 19:49 | 14.59434 | -61.00049 | 17 ft | 4 kts | 22° |
| 2026-05-04 19:49 | 14.59410 | -61.00060 | 18 ft | 3 kts | 22° |
| 2026-05-04 19:49 | 14.59390 | -61.00070 | 18 ft | 4 kts | 52° |
| 2026-05-04 19:50 | 14.59381 | -61.00094 | 18 ft | 4 kts | 96° |
| 2026-05-04 19:50 | 14.59385 | -61.00108 | 18 ft | 0 kts | 115° |
| 2026-05-04 19:52 | 14.59384 | -61.00106 | 18 ft | 1 kts | 115° |
| 2026-05-04 19:52 | 14.59379 | -61.00095 | 18 ft | 3 kts | 111° |
| 2026-05-04 19:53 | 14.59367 | -61.00067 | 20 ft | 5 kts | 120° |
| 2026-05-04 19:53 | 14.59329 | -61.00046 | 19 ft | 8 kts | 169° |
| 2026-05-04 19:53 | 14.59265 | -61.00034 | 20 ft | 10 kts | 169° |
| 2026-05-04 19:53 | 14.59195 | -61.00025 | 20 ft | 10 kts | 187° |
| 2026-05-04 19:54 | 14.59149 | -61.00080 | 17 ft | 13 kts | 253° |
| 2026-05-04 19:54 | 14.59130 | -61.00184 | 16 ft | 15 kts | 260° |
| 2026-05-04 19:54 | 14.59113 | -61.00283 | 16 ft | 13 kts | 260° |
| 2026-05-04 19:54 | 14.59095 | -61.00389 | 16 ft | 17 kts | 259° |
| 2026-05-04 19:55 | 14.59072 | -61.00517 | 15 ft | 20 kts | 259° |
| 2026-05-04 19:55 | 14.59047 | -61.00666 | 18 ft | 22 kts | 261° |
| 2026-05-04 19:55 | 14.59019 | -61.00821 | 22 ft | 22 kts | 259° |
| 2026-05-04 19:55 | 14.58991 | -61.00991 | 22 ft | 26 kts | 261° |
| 2026-05-04 19:56 | 14.58961 | -61.01172 | 26 ft | 24 kts | 260° |
| 2026-05-04 19:56 | 14.58934 | -61.01332 | 24 ft | 22 kts | 260° |
| 2026-05-04 19:56 | 14.58907 | -61.01486 | 22 ft | 21 kts | 260° |
| 2026-05-04 19:56 | 14.58883 | -61.01633 | 20 ft | 20 kts | 260° |
| 2026-05-04 19:57 | 14.58863 | -61.01746 | 17 ft | 6 kts | 267° |
| 2026-05-04 19:57 | 14.58885 | -61.01781 | 18 ft | 6 kts | 311° |
| 2026-05-04 19:57 | 14.58890 | -61.01823 | 16 ft | 8 kts | 223° |
| 2026-05-04 19:57 | 14.58852 | -61.01801 | 16 ft | 7 kts | 102° |
| 2026-05-04 19:58 | 14.58854 | -61.01788 | 16 ft | 0 kts | 77° |
| 2026-05-04 19:58 | 14.58865 | -61.01731 | 18 ft | 31 kts | 79° |
| 2026-05-04 19:58 | 14.58943 | -61.01272 | 25 ft | 96 kts | 80° |
| 2026-05-04 19:58 | 14.59092 | -61.00398 | 20 ft | 149 kts | 80° |
| 2026-05-04 19:59 | 14.59216 | -60.99683 | 307 ft | 152 kts | 78° |
| 2026-05-04 19:59 | 14.59408 | -60.98621 | 963 ft | 150 kts | 81° |
| 2026-05-04 19:59 | 14.59669 | -60.97175 | 1672 ft | 154 kts | 81° |
| 2026-05-04 19:59 | 14.59800 | -60.96443 | 1961 ft | 158 kts | 81° |
| 2026-05-04 20:00 | 14.59987 | -60.95323 | 2497 ft | 158 kts | 83° |
| 2026-05-04 20:00 | 14.60233 | -60.93838 | 3243 ft | 160 kts | 81° |
| 2026-05-04 20:00 | 14.60433 | -60.92633 | 3515 ft | 182 kts | 80° |
| 2026-05-04 20:00 | 14.60583 | -60.91728 | 3655 ft | 197 kts | 81° |
| 2026-05-04 20:01 | 14.60819 | -60.90242 | 3860 ft | 222 kts | 85° |
| 2026-05-04 20:01 | 14.60520 | -60.88633 | 4164 ft | 244 kts | 121° |
| 2026-05-04 20:01 | 14.59320 | -60.87323 | 4791 ft | 258 kts | 140° |
| 2026-05-04 20:01 | 14.57824 | -60.86258 | 5534 ft | 265 kts | 146° |
| 2026-05-04 20:02 | 14.56248 | -60.85257 | 6386 ft | 266 kts | 146° |
| 2026-05-04 20:02 | 14.54696 | -60.84259 | 7156 ft | 267 kts | 146° |
| 2026-05-04 20:02 | 14.53127 | -60.83199 | 7811 ft | 273 kts | 144° |
| 2026-05-04 20:02 | 14.51544 | -60.82080 | 8487 ft | 278 kts | 143° |
| 2026-05-04 20:03 | 14.49954 | -60.80919 | 9199 ft | 281 kts | 143° |
| 2026-05-04 20:03 | 14.48367 | -60.79733 | 9921 ft | 283 kts | 142° |
| 2026-05-04 20:03 | 14.46749 | -60.78513 | 10312 ft | 298 kts | 142° |
| 2026-05-04 20:03 | 14.45016 | -60.77198 | 10456 ft | 320 kts | 142° |
| 2026-05-04 20:04 | 14.43185 | -60.75805 | 10825 ft | 332 kts | 142° |
| 2026-05-04 20:04 | 14.41308 | -60.74380 | 11348 ft | 338 kts | 142° |
| 2026-05-04 20:04 | 14.39402 | -60.72936 | 11916 ft | 342 kts | 142° |
| 2026-05-04 20:04 | 14.37473 | -60.71474 | 12546 ft | 344 kts | 142° |
| 2026-05-04 20:05 | 14.35538 | -60.70009 | 13187 ft | 346 kts | 142° |
| 2026-05-04 20:05 | 14.33585 | -60.68533 | 13779 ft | 349 kts | 142° |
| 2026-05-04 20:05 | 14.31609 | -60.67041 | 14244 ft | 354 kts | 142° |
| 2026-05-04 20:05 | 14.29612 | -60.65533 | 14713 ft | 358 kts | 142° |
| 2026-05-04 20:06 | 14.27592 | -60.64005 | 15220 ft | 361 kts | 142° |
| 2026-05-04 20:06 | 14.25557 | -60.62464 | 15710 ft | 365 kts | 141° |
| 2026-05-04 20:06 | 14.23501 | -60.60905 | 16175 ft | 369 kts | 141° |
| 2026-05-04 20:06 | 14.21420 | -60.59330 | 16629 ft | 373 kts | 141° |
| 2026-05-04 20:07 | 14.19313 | -60.57737 | 17074 ft | 378 kts | 141° |
| 2026-05-04 20:07 | 14.17177 | -60.56128 | 17508 ft | 383 kts | 141° |
| 2026-05-04 20:07 | 14.15014 | -60.54497 | 17932 ft | 387 kts | 142° |
| 2026-05-04 20:07 | 14.12830 | -60.52849 | 18379 ft | 391 kts | 142° |
| 2026-05-04 20:08 | 14.10620 | -60.51179 | 18771 ft | 395 kts | 142° |
| 2026-05-04 20:08 | 14.08397 | -60.49501 | 19209 ft | 398 kts | 142° |
| 2026-05-04 20:08 | 14.06158 | -60.47809 | 19640 ft | 400 kts | 142° |
| 2026-05-04 20:08 | 14.03988 | -60.46008 | 20080 ft | 401 kts | 134° |
| 2026-05-04 20:09 | 14.01996 | -60.43983 | 20524 ft | 403 kts | 133° |
| 2026-05-04 20:09 | 13.99994 | -60.41946 | 20976 ft | 406 kts | 133° |
| 2026-05-04 20:09 | 13.97980 | -60.39899 | 21418 ft | 408 kts | 133° |
| 2026-05-04 20:09 | 13.95954 | -60.37837 | 21855 ft | 411 kts | 133° |
| 2026-05-04 20:10 | 13.93914 | -60.35762 | 22277 ft | 414 kts | 133° |
| 2026-05-04 20:10 | 13.91858 | -60.33673 | 22698 ft | 416 kts | 133° |
| 2026-05-04 20:10 | 13.89791 | -60.31573 | 23112 ft | 419 kts | 133° |
| 2026-05-04 20:10 | 13.87714 | -60.29462 | 23511 ft | 421 kts | 133° |
| 2026-05-04 20:11 | 13.85621 | -60.27339 | 23835 ft | 424 kts | 133° |
| 2026-05-04 20:11 | 13.83511 | -60.25200 | 24136 ft | 427 kts | 133° |
| 2026-05-04 20:11 | 13.81392 | -60.23050 | 24437 ft | 430 kts | 133° |
| 2026-05-04 20:11 | 13.79257 | -60.20882 | 24726 ft | 432 kts | 133° |
| 2026-05-04 20:12 | 13.77109 | -60.18701 | 25009 ft | 435 kts | 133° |
| 2026-05-04 20:12 | 13.74951 | -60.16507 | 25303 ft | 438 kts | 134° |
| 2026-05-04 20:12 | 13.72808 | -60.14326 | 25549 ft | 441 kts | 134° |
| 2026-05-04 20:12 | 13.70615 | -60.12098 | 25803 ft | 444 kts | 134° |
| 2026-05-04 20:13 | 13.68409 | -60.09863 | 26076 ft | 446 kts | 134° |
| 2026-05-04 20:13 | 13.66190 | -60.07622 | 26372 ft | 448 kts | 134° |
| 2026-05-04 20:13 | 13.63960 | -60.05374 | 26643 ft | 451 kts | 134° |
| 2026-05-04 20:13 | 13.61718 | -60.03108 | 26891 ft | 454 kts | 135° |
| 2026-05-04 20:14 | 13.59464 | -60.00825 | 27138 ft | 456 kts | 134° |
| 2026-05-04 20:14 | 13.57195 | -59.98525 | 27381 ft | 459 kts | 135° |
| 2026-05-04 20:14 | 13.54917 | -59.96217 | 27641 ft | 461 kts | 134° |
| 2026-05-04 20:14 | 13.52626 | -59.93899 | 27900 ft | 463 kts | 135° |
| 2026-05-04 20:15 | 13.50322 | -59.91571 | 28151 ft | 466 kts | 135° |
| 2026-05-04 20:15 | 13.48009 | -59.89232 | 28392 ft | 468 kts | 135° |
| 2026-05-04 20:15 | 13.45686 | -59.86883 | 28640 ft | 470 kts | 135° |
| 2026-05-04 20:15 | 13.43350 | -59.84519 | 28894 ft | 472 kts | 135° |
| 2026-05-04 20:16 | 13.41008 | -59.82151 | 29128 ft | 474 kts | 135° |
| 2026-05-04 20:16 | 13.38654 | -59.79775 | 29358 ft | 475 kts | 135° |
| 2026-05-04 20:16 | 13.36291 | -59.77389 | 29578 ft | 477 kts | 135° |
| 2026-05-04 20:16 | 13.33917 | -59.74994 | 29788 ft | 479 kts | 135° |
| 2026-05-04 20:17 | 13.31532 | -59.72591 | 29993 ft | 481 kts | 135° |
| 2026-05-04 20:17 | 13.29139 | -59.70179 | 30183 ft | 483 kts | 135° |
| 2026-05-04 20:17 | 13.26739 | -59.67758 | 30342 ft | 484 kts | 135° |
| 2026-05-04 20:17 | 13.24330 | -59.65328 | 30493 ft | 487 kts | 135° |
| 2026-05-04 20:18 | 13.21910 | -59.62889 | 30655 ft | 488 kts | 135° |
| 2026-05-04 20:18 | 13.19484 | -59.60444 | 30823 ft | 490 kts | 135° |
| 2026-05-04 20:18 | 13.17051 | -59.57992 | 31044 ft | 490 kts | 135° |
| 2026-05-04 20:18 | 13.14625 | -59.55547 | 31296 ft | 489 kts | 135° |
| 2026-05-04 20:19 | 13.12199 | -59.53104 | 31531 ft | 488 kts | 135° |
| 2026-05-04 20:19 | 13.09776 | -59.50666 | 31762 ft | 488 kts | 135° |
| 2026-05-04 20:19 | 13.07344 | -59.48226 | 31998 ft | 488 kts | 135° |
| 2026-05-04 20:19 | 13.04860 | -59.45847 | 32233 ft | 488 kts | 137° |
| 2026-05-04 20:20 | 13.02316 | -59.43544 | 32462 ft | 488 kts | 139° |
| 2026-05-04 20:20 | 12.99732 | -59.41289 | 32696 ft | 488 kts | 140° |
| 2026-05-04 20:20 | 12.97163 | -59.39078 | 32940 ft | 487 kts | 140° |
| 2026-05-04 20:20 | 12.94570 | -59.36841 | 33181 ft | 487 kts | 139° |
| 2026-05-04 20:21 | 12.91995 | -59.34591 | 33418 ft | 487 kts | 139° |
| 2026-05-04 20:21 | 12.89435 | -59.32323 | 33634 ft | 487 kts | 139° |
| 2026-05-04 20:21 | 12.84321 | -59.27747 | 34072 ft | 488 kts | 139° |
| 2026-05-04 20:22 | 12.81768 | -59.25460 | 34292 ft | 487 kts | 139° |
| 2026-05-04 20:22 | 12.79210 | -59.23175 | 34513 ft | 486 kts | 139° |
| 2026-05-04 20:22 | 12.76656 | -59.20899 | 34748 ft | 485 kts | 139° |
| 2026-05-04 20:22 | 12.74113 | -59.18636 | 34940 ft | 485 kts | 139° |
| 2026-05-04 20:23 | 12.69051 | -59.14138 | 35002 ft | 479 kts | 139° |
| 2026-05-04 20:23 | 12.64027 | -59.09670 | 35001 ft | 478 kts | 139° |
| 2026-05-04 20:24 | 12.59002 | -59.05202 | 35001 ft | 478 kts | 139° |
| 2026-05-04 20:24 | 12.53983 | -59.00744 | 35005 ft | 478 kts | 139° |
| 2026-05-04 20:25 | 12.48959 | -58.96291 | 34998 ft | 478 kts | 139° |
| 2026-05-04 20:25 | 12.43937 | -58.91843 | 35002 ft | 478 kts | 139° |
| 2026-05-04 20:26 | 12.38912 | -58.87390 | 35006 ft | 478 kts | 139° |
| 2026-05-04 20:26 | 12.33890 | -58.82939 | 35009 ft | 478 kts | 139° |
| 2026-05-04 20:27 | 12.28866 | -58.78483 | 35014 ft | 478 kts | 139° |
| 2026-05-04 20:27 | 12.23869 | -58.74059 | 35015 ft | 478 kts | 139° |
| 2026-05-04 20:28 | 12.18837 | -58.69613 | 35003 ft | 478 kts | 139° |
| 2026-05-04 20:28 | 12.13803 | -58.65171 | 35000 ft | 479 kts | 139° |
| 2026-05-04 20:29 | 12.08752 | -58.60712 | 35000 ft | 479 kts | 139° |
| 2026-05-04 20:29 | 12.03715 | -58.56257 | 35001 ft | 479 kts | 139° |
| 2026-05-04 20:30 | 11.98668 | -58.51791 | 35003 ft | 480 kts | 139° |
| 2026-05-04 20:30 | 11.93617 | -58.47335 | 35005 ft | 480 kts | 139° |
| 2026-05-04 20:31 | 11.88561 | -58.42885 | 35006 ft | 480 kts | 139° |
| 2026-05-04 20:31 | 11.83543 | -58.38461 | 35002 ft | 480 kts | 139° |
| 2026-05-04 20:32 | 11.78482 | -58.33995 | 35002 ft | 480 kts | 139° |
| 2026-05-04 20:32 | 11.73422 | -58.29534 | 35004 ft | 481 kts | 139° |
| 2026-05-04 20:33 | 11.68359 | -58.25077 | 35006 ft | 481 kts | 139° |
| 2026-05-04 20:33 | 11.63290 | -58.20621 | 35006 ft | 481 kts | 139° |
| 2026-05-04 20:34 | 11.58212 | -58.16167 | 35008 ft | 481 kts | 139° |
| 2026-05-04 20:34 | 11.53177 | -58.11752 | 35009 ft | 480 kts | 139° |
| 2026-05-04 20:35 | 11.48112 | -58.07302 | 35000 ft | 480 kts | 139° |
| 2026-05-04 20:35 | 11.43047 | -58.02852 | 34996 ft | 481 kts | 139° |
| 2026-05-04 20:36 | 11.37971 | -57.98395 | 35000 ft | 481 kts | 139° |
| 2026-05-04 20:36 | 11.32893 | -57.93938 | 34996 ft | 481 kts | 140° |
| 2026-05-04 20:37 | 11.27814 | -57.89496 | 34998 ft | 481 kts | 140° |
| 2026-05-04 20:37 | 11.22736 | -57.85049 | 35002 ft | 481 kts | 139° |
| 2026-05-04 20:38 | 11.17671 | -57.80597 | 35000 ft | 481 kts | 139° |
| 2026-05-04 20:38 | 11.17513 | -57.80458 | 35000 ft | 481 kts | 139° |
| 2026-05-04 20:40 | 11.14709 | -57.78009 | 34948 ft | 481 kts | 140° |
| 2026-05-04 20:41 | 11.09634 | -57.73569 | 34963 ft | 481 kts | 140° |
| 2026-05-04 20:41 | 11.05408 | -57.69870 | 34972 ft | 482 kts | 140° |
| 2026-05-04 20:42 | 11.00321 | -57.65418 | 34978 ft | 482 kts | 140° |
| 2026-05-04 20:42 | 10.95223 | -57.60965 | 34991 ft | 482 kts | 140° |
| 2026-05-04 20:43 | 10.90131 | -57.56513 | 34998 ft | 482 kts | 140° |
| 2026-05-04 20:43 | 10.85065 | -57.52101 | 34997 ft | 482 kts | 140° |
| 2026-05-04 20:44 | 10.79979 | -57.47661 | 34983 ft | 482 kts | 140° |
| 2026-05-04 20:44 | 10.74889 | -57.43225 | 34977 ft | 482 kts | 140° |
| 2026-05-04 20:45 | 10.69789 | -57.38778 | 34979 ft | 483 kts | 140° |
| 2026-05-04 20:45 | 10.64685 | -57.34327 | 34988 ft | 483 kts | 140° |
| 2026-05-04 20:46 | 10.59579 | -57.29883 | 34994 ft | 483 kts | 140° |
| 2026-05-04 20:46 | 10.54480 | -57.25442 | 34992 ft | 482 kts | 140° |
| 2026-05-04 20:47 | 10.49390 | -57.21005 | 34993 ft | 482 kts | 140° |
| 2026-05-04 20:47 | 10.44292 | -57.16563 | 34979 ft | 483 kts | 141° |
| 2026-05-04 20:48 | 10.39175 | -57.12125 | 34975 ft | 484 kts | 141° |
| 2026-05-04 20:48 | 10.34049 | -57.07681 | 34980 ft | 484 kts | 141° |
| 2026-05-04 20:49 | 10.28969 | -57.03266 | 34986 ft | 484 kts | 141° |
| 2026-05-04 20:49 | 10.23852 | -56.98821 | 34987 ft | 484 kts | 141° |
| 2026-05-04 20:50 | 10.18738 | -56.94373 | 34989 ft | 484 kts | 141° |
| 2026-05-04 20:50 | 10.13608 | -56.89925 | 34985 ft | 484 kts | 141° |
| 2026-05-04 20:51 | 10.08488 | -56.85492 | 34982 ft | 484 kts | 141° |
| 2026-05-04 20:51 | 10.03370 | -56.81056 | 34978 ft | 484 kts | 142° |
| 2026-05-04 20:52 | 9.98256 | -56.76622 | 34980 ft | 484 kts | 142° |
| 2026-05-04 20:52 | 9.93135 | -56.72189 | 34981 ft | 484 kts | 142° |
| 2026-05-04 20:53 | 9.88014 | -56.67765 | 34982 ft | 483 kts | 142° |
| 2026-05-04 20:53 | 9.82898 | -56.63332 | 34979 ft | 483 kts | 142° |
| 2026-05-04 20:54 | 9.77780 | -56.58900 | 34970 ft | 483 kts | 142° |
| 2026-05-04 20:54 | 9.72694 | -56.54506 | 34967 ft | 484 kts | 142° |
| 2026-05-04 20:55 | 9.67562 | -56.50078 | 34967 ft | 484 kts | 142° |
| 2026-05-04 20:55 | 9.62429 | -56.45644 | 34966 ft | 484 kts | 142° |
| 2026-05-04 20:56 | 9.57293 | -56.41201 | 34971 ft | 485 kts | 142° |
| 2026-05-04 20:56 | 9.52155 | -56.36764 | 34974 ft | 485 kts | 142° |
| 2026-05-04 20:57 | 9.47020 | -56.32333 | 34976 ft | 485 kts | 142° |
| 2026-05-04 20:57 | 9.41886 | -56.27902 | 34977 ft | 484 kts | 142° |
| 2026-05-04 20:58 | 9.36802 | -56.23520 | 34989 ft | 483 kts | 142° |
| 2026-05-04 20:58 | 9.31685 | -56.19115 | 34995 ft | 481 kts | 143° |
| 2026-05-04 20:59 | 9.26586 | -56.14728 | 34992 ft | 481 kts | 143° |
| 2026-05-04 20:59 | 9.21487 | -56.10343 | 34993 ft | 480 kts | 143° |
| 2026-05-04 21:00 | 9.16396 | -56.05958 | 34990 ft | 480 kts | 142° |
| 2026-05-04 21:00 | 9.11295 | -56.01564 | 34987 ft | 480 kts | 143° |
| 2026-05-04 21:01 | 9.06056 | -55.97415 | 34985 ft | 478 kts | 148° |
| 2026-05-04 21:01 | 9.00605 | -55.93554 | 34985 ft | 478 kts | 148° |
| 2026-05-04 21:02 | 8.95153 | -55.89698 | 34985 ft | 477 kts | 148° |
| 2026-05-04 21:02 | 8.89747 | -55.85877 | 34985 ft | 477 kts | 148° |
| 2026-05-04 21:03 | 8.84303 | -55.82026 | 34983 ft | 477 kts | 148° |
| 2026-05-04 21:03 | 8.78860 | -55.78171 | 34986 ft | 477 kts | 148° |
| 2026-05-04 21:04 | 8.73424 | -55.74323 | 34980 ft | 477 kts | 148° |
| 2026-05-04 21:04 | 8.67996 | -55.70484 | 34983 ft | 476 kts | 148° |
| 2026-05-04 21:05 | 8.62568 | -55.66652 | 34985 ft | 476 kts | 148° |
| 2026-05-04 21:05 | 8.57135 | -55.62815 | 34990 ft | 476 kts | 148° |
| 2026-05-04 21:06 | 8.51702 | -55.58980 | 34992 ft | 476 kts | 148° |
| 2026-05-04 21:06 | 8.46276 | -55.55147 | 34983 ft | 475 kts | 148° |
| 2026-05-04 21:07 | 8.40864 | -55.51319 | 34970 ft | 473 kts | 148° |
| 2026-05-04 21:07 | 8.35466 | -55.47510 | 34967 ft | 473 kts | 148° |
| 2026-05-04 21:08 | 8.30101 | -55.43729 | 34969 ft | 474 kts | 148° |
| 2026-05-04 21:08 | 8.24683 | -55.39917 | 34983 ft | 473 kts | 148° |
| 2026-05-04 21:09 | 8.19302 | -55.36115 | 34976 ft | 472 kts | 148° |
| 2026-05-04 21:09 | 8.13928 | -55.32333 | 34959 ft | 470 kts | 148° |
| 2026-05-04 21:10 | 8.08518 | -55.28533 | 34948 ft | 471 kts | 148° |
| 2026-05-04 21:10 | 8.03177 | -55.24772 | 34968 ft | 471 kts | 149° |
| 2026-05-04 21:11 | 7.97808 | -55.20994 | 34970 ft | 470 kts | 149° |
| 2026-05-04 21:11 | 7.92443 | -55.17226 | 34973 ft | 470 kts | 149° |
| 2026-05-04 21:12 | 7.87091 | -55.13456 | 34969 ft | 469 kts | 149° |
| 2026-05-04 21:12 | 7.81738 | -55.09691 | 34962 ft | 469 kts | 149° |
| 2026-05-04 21:13 | 7.76388 | -55.05928 | 34953 ft | 469 kts | 149° |
| 2026-05-04 21:13 | 7.71043 | -55.02170 | 34953 ft | 469 kts | 149° |
| 2026-05-04 21:14 | 7.65681 | -54.98410 | 34969 ft | 471 kts | 148° |
| 2026-05-04 21:14 | 7.60308 | -54.94638 | 34982 ft | 473 kts | 149° |
| 2026-05-04 21:15 | 7.54910 | -54.90861 | 34989 ft | 471 kts | 149° |
| 2026-05-04 21:15 | 7.49530 | -54.87085 | 34991 ft | 471 kts | 149° |
| 2026-05-04 21:16 | 7.44164 | -54.83306 | 34979 ft | 471 kts | 148° |
| 2026-05-04 21:16 | 7.38794 | -54.79546 | 34979 ft | 469 kts | 148° |
| 2026-05-04 21:17 | 7.33459 | -54.75811 | 34984 ft | 470 kts | 148° |
| 2026-05-04 21:17 | 7.28111 | -54.72046 | 34984 ft | 468 kts | 148° |
| 2026-05-04 21:18 | 7.22763 | -54.68297 | 34987 ft | 468 kts | 148° |
| 2026-05-04 21:18 | 7.17422 | -54.64570 | 34978 ft | 467 kts | 148° |
| 2026-05-04 21:19 | 7.12090 | -54.60841 | 34975 ft | 467 kts | 148° |
| 2026-05-04 21:19 | 7.06756 | -54.57108 | 34976 ft | 467 kts | 148° |
| 2026-05-04 21:20 | 7.01434 | -54.53377 | 34981 ft | 466 kts | 148° |
| 2026-05-04 21:20 | 6.96117 | -54.49652 | 34976 ft | 464 kts | 148° |
| 2026-05-04 21:21 | 6.90797 | -54.45934 | 34989 ft | 465 kts | 148° |
| 2026-05-04 21:21 | 6.85496 | -54.42227 | 34981 ft | 463 kts | 148° |
| 2026-05-04 21:22 | 6.80201 | -54.38531 | 34976 ft | 462 kts | 148° |
| 2026-05-04 21:22 | 6.74926 | -54.34836 | 34984 ft | 461 kts | 148° |
| 2026-05-04 21:23 | 6.70557 | -54.31773 | 34982 ft | 459 kts | 148° |
| 2026-05-04 21:23 | 6.65310 | -54.28116 | 34974 ft | 458 kts | 148° |
| 2026-05-04 21:24 | 6.60085 | -54.24472 | 34967 ft | 457 kts | 148° |
| 2026-05-04 21:24 | 6.54865 | -54.20826 | 34974 ft | 456 kts | 148° |
| 2026-05-04 21:25 | 6.49654 | -54.17191 | 34966 ft | 455 kts | 148° |
| 2026-05-04 21:25 | 6.44492 | -54.13585 | 34972 ft | 454 kts | 147° |
| 2026-05-04 21:26 | 6.39274 | -54.09945 | 34973 ft | 452 kts | 148° |
| 2026-05-04 21:26 | 6.34141 | -54.06366 | 34973 ft | 451 kts | 147° |
| 2026-05-04 21:27 | 6.28984 | -54.02766 | 34966 ft | 450 kts | 147° |
| 2026-05-04 21:27 | 6.23848 | -53.99168 | 34964 ft | 450 kts | 147° |
| 2026-05-04 21:28 | 6.18831 | -53.95396 | 34959 ft | 450 kts | 144° |
| 2026-05-04 21:28 | 6.13895 | -53.91527 | 34951 ft | 450 kts | 144° |
| 2026-05-04 21:29 | 6.08992 | -53.87708 | 34954 ft | 448 kts | 144° |
| 2026-05-04 21:29 | 6.04035 | -53.83915 | 34955 ft | 447 kts | 145° |
| 2026-05-04 21:30 | 5.99077 | -53.80132 | 34889 ft | 448 kts | 144° |
| 2026-05-04 21:30 | 5.96598 | -53.78237 | 34650 ft | 447 kts | 144° |
| 2026-05-04 21:30 | 5.94125 | -53.76346 | 34424 ft | 447 kts | 144° |
| 2026-05-04 21:31 | 5.89188 | -53.72560 | 33815 ft | 443 kts | 144° |
| 2026-05-04 21:31 | 5.86744 | -53.70687 | 33222 ft | 440 kts | 144° |
| 2026-05-04 21:31 | 5.84317 | -53.68827 | 32681 ft | 437 kts | 144° |
| 2026-05-04 21:32 | 5.81907 | -53.66984 | 32138 ft | 435 kts | 144° |
| 2026-05-04 21:32 | 5.79504 | -53.65146 | 31594 ft | 433 kts | 144° |
| 2026-05-04 21:32 | 5.77109 | -53.63314 | 31057 ft | 432 kts | 144° |
| 2026-05-04 21:32 | 5.74720 | -53.61488 | 30531 ft | 431 kts | 144° |
| 2026-05-04 21:33 | 5.72333 | -53.59665 | 29994 ft | 431 kts | 144° |
| 2026-05-04 21:33 | 5.69950 | -53.57845 | 29420 ft | 430 kts | 144° |
| 2026-05-04 21:33 | 5.67577 | -53.56034 | 28894 ft | 427 kts | 144° |
| 2026-05-04 21:33 | 5.65223 | -53.54237 | 28402 ft | 424 kts | 144° |
| 2026-05-04 21:34 | 5.62878 | -53.52443 | 27897 ft | 422 kts | 144° |
| 2026-05-04 21:34 | 5.60554 | -53.50662 | 27408 ft | 419 kts | 144° |
| 2026-05-04 21:34 | 5.58240 | -53.48891 | 26917 ft | 417 kts | 143° |
| 2026-05-04 21:34 | 5.55939 | -53.47132 | 26450 ft | 415 kts | 144° |
| 2026-05-04 21:35 | 5.53646 | -53.45384 | 25980 ft | 413 kts | 144° |
| 2026-05-04 21:35 | 5.51359 | -53.43643 | 25505 ft | 412 kts | 143° |
| 2026-05-04 21:35 | 5.49078 | -53.41906 | 25031 ft | 410 kts | 143° |
| 2026-05-04 21:35 | 5.46812 | -53.40175 | 24542 ft | 409 kts | 143° |
| 2026-05-04 21:36 | 5.44548 | -53.38444 | 24056 ft | 409 kts | 142° |
| 2026-05-04 21:36 | 5.42290 | -53.36716 | 23552 ft | 408 kts | 142° |
| 2026-05-04 21:36 | 5.40029 | -53.34984 | 22985 ft | 408 kts | 142° |
| 2026-05-04 21:36 | 5.37808 | -53.33280 | 22482 ft | 406 kts | 141° |
| 2026-05-04 21:37 | 5.35570 | -53.31571 | 21979 ft | 403 kts | 141° |
| 2026-05-04 21:37 | 5.33348 | -53.29879 | 21587 ft | 398 kts | 141° |
| 2026-05-04 21:37 | 5.31150 | -53.28204 | 21074 ft | 396 kts | 141° |
| 2026-05-04 21:37 | 5.28977 | -53.26548 | 20730 ft | 389 kts | 141° |
| 2026-05-04 21:38 | 5.26824 | -53.24907 | 20267 ft | 387 kts | 141° |
| 2026-05-04 21:38 | 5.24704 | -53.23294 | 19634 ft | 379 kts | 141° |
| 2026-05-04 21:38 | 5.22628 | -53.21715 | 19025 ft | 369 kts | 140° |
| 2026-05-04 21:38 | 5.20620 | -53.20188 | 18605 ft | 357 kts | 140° |
| 2026-05-04 21:39 | 5.18665 | -53.18696 | 18156 ft | 348 kts | 139° |
| 2026-05-04 21:39 | 5.16943 | -53.17024 | 17685 ft | 343 kts | 126° |
| 2026-05-04 21:39 | 5.15557 | -53.15097 | 17255 ft | 339 kts | 122° |
| 2026-05-04 21:39 | 5.14205 | -53.13165 | 16823 ft | 337 kts | 123° |
| 2026-05-04 21:40 | 5.12853 | -53.11249 | 16404 ft | 335 kts | 123° |
| 2026-05-04 21:40 | 5.11507 | -53.09342 | 15981 ft | 334 kts | 123° |
| 2026-05-04 21:40 | 5.10164 | -53.07441 | 15558 ft | 334 kts | 123° |
| 2026-05-04 21:40 | 5.08824 | -53.05547 | 15145 ft | 333 kts | 123° |
| 2026-05-04 21:41 | 5.07488 | -53.03655 | 14727 ft | 331 kts | 123° |
| 2026-05-04 21:41 | 5.06155 | -53.01771 | 14301 ft | 330 kts | 123° |
| 2026-05-04 21:41 | 5.04828 | -52.99895 | 13886 ft | 327 kts | 123° |
| 2026-05-04 21:41 | 5.03529 | -52.98057 | 13445 ft | 319 kts | 124° |
| 2026-05-04 21:42 | 5.02262 | -52.96262 | 13037 ft | 311 kts | 124° |
| 2026-05-04 21:42 | 5.01028 | -52.94515 | 12630 ft | 303 kts | 124° |
| 2026-05-04 21:42 | 4.99818 | -52.92808 | 12234 ft | 296 kts | 124° |
| 2026-05-04 21:42 | 4.98637 | -52.91140 | 11850 ft | 289 kts | 124° |
| 2026-05-04 21:43 | 4.97480 | -52.89504 | 11470 ft | 287 kts | 124° |
| 2026-05-04 21:43 | 4.96326 | -52.87871 | 11085 ft | 287 kts | 124° |
| 2026-05-04 21:43 | 4.95173 | -52.86237 | 10692 ft | 287 kts | 124° |
| 2026-05-04 21:43 | 4.94023 | -52.84604 | 10303 ft | 287 kts | 124° |
| 2026-05-04 21:44 | 4.92874 | -52.82972 | 10048 ft | 283 kts | 124° |
| 2026-05-04 21:44 | 4.91741 | -52.81366 | 9952 ft | 282 kts | 125° |
| 2026-05-04 21:44 | 4.90598 | -52.79751 | 9460 ft | 287 kts | 125° |
| 2026-05-04 21:44 | 4.89450 | -52.78129 | 9151 ft | 282 kts | 124° |
| 2026-05-04 21:45 | 4.88340 | -52.76558 | 8492 ft | 279 kts | 124° |
| 2026-05-04 21:45 | 4.87222 | -52.74973 | 7860 ft | 277 kts | 124° |
| 2026-05-04 21:45 | 4.86114 | -52.73405 | 7330 ft | 274 kts | 124° |
| 2026-05-04 21:45 | 4.85013 | -52.71847 | 6821 ft | 275 kts | 124° |
| 2026-05-04 21:46 | 4.83902 | -52.70271 | 6316 ft | 278 kts | 124° |
| 2026-05-04 21:46 | 4.82791 | -52.68697 | 5869 ft | 278 kts | 124° |
| 2026-05-04 21:46 | 4.81675 | -52.67115 | 5515 ft | 273 kts | 124° |
| 2026-05-04 21:46 | 4.80591 | -52.65577 | 4872 ft | 269 kts | 123° |
| 2026-05-04 21:47 | 4.79524 | -52.64065 | 4423 ft | 259 kts | 123° |
| 2026-05-04 21:47 | 4.78515 | -52.62644 | 4369 ft | 243 kts | 123° |
| 2026-05-04 21:47 | 4.77564 | -52.61306 | 4297 ft | 231 kts | 123° |
| 2026-05-04 21:47 | 4.76640 | -52.60000 | 4197 ft | 228 kts | 123° |
| 2026-05-04 21:48 | 4.75728 | -52.58703 | 4107 ft | 227 kts | 123° |
| 2026-05-04 21:48 | 4.74829 | -52.57433 | 4009 ft | 218 kts | 123° |
| 2026-05-04 21:48 | 4.74080 | -52.56139 | 3750 ft | 215 kts | 107° |
| 2026-05-04 21:48 | 4.73829 | -52.54697 | 3516 ft | 208 kts | 87° |
| 2026-05-04 21:49 | 4.74091 | -52.53301 | 3284 ft | 202 kts | 67° |
| 2026-05-04 21:49 | 4.74666 | -52.52034 | 3073 ft | 197 kts | 65° |
| 2026-05-04 21:49 | 4.75235 | -52.50803 | 2802 ft | 192 kts | 65° |
| 2026-05-04 21:49 | 4.75784 | -52.49609 | 2549 ft | 185 kts | 65° |
| 2026-05-04 21:50 | 4.76316 | -52.48459 | 2321 ft | 179 kts | 65° |
| 2026-05-04 21:50 | 4.76830 | -52.47342 | 2083 ft | 173 kts | 64° |
| 2026-05-04 21:50 | 4.77324 | -52.46272 | 1862 ft | 163 kts | 64° |
| 2026-05-04 21:50 | 4.77773 | -52.45296 | 1673 ft | 147 kts | 64° |
| 2026-05-04 21:51 | 4.78190 | -52.44391 | 1481 ft | 140 kts | 65° |
| 2026-05-04 21:51 | 4.78593 | -52.43518 | 1309 ft | 137 kts | 65° |
| 2026-05-04 21:51 | 4.78994 | -52.42650 | 1122 ft | 136 kts | 63° |
| 2026-05-04 21:51 | 4.79389 | -52.41785 | 951 ft | 138 kts | 64° |
| 2026-05-04 21:52 | 4.79791 | -52.40918 | 808 ft | 137 kts | 63° |
| 2026-05-04 21:52 | 4.80196 | -52.40053 | 619 ft | 138 kts | 65° |
| 2026-05-04 21:52 | 4.80597 | -52.39177 | 452 ft | 138 kts | 65° |
| 2026-05-04 21:52 | 4.81002 | -52.38294 | 274 ft | 139 kts | 65° |
| 2026-05-04 21:53 | 4.81403 | -52.37418 | 63 ft | 138 kts | 66° |
| 2026-05-04 21:53 | 4.81776 | -52.36606 | 29 ft | 111 kts | 65° |
| 2026-05-04 21:53 | 4.82028 | -52.36058 | 29 ft | 62 kts | 65° |
| 2026-05-04 21:53 | 4.82148 | -52.35798 | 29 ft | 32 kts | 65° |
| 2026-05-04 21:54 | 4.82231 | -52.35618 | 29 ft | 21 kts | 65° |
| 2026-05-04 21:54 | 4.82258 | -52.35515 | 30 ft | 12 kts | 95° |
| 2026-05-04 21:54 | 4.82277 | -52.35480 | 30 ft | 4 kts | 330° |
| 2026-05-04 21:54 | 4.82278 | -52.35507 | 30 ft | 4 kts | 257° |
| 2026-05-04 21:55 | 4.82264 | -52.35542 | 30 ft | 7 kts | 247° |
| 2026-05-04 21:55 | 4.82227 | -52.35624 | 29 ft | 16 kts | 245° |
| 2026-05-04 21:55 | 4.82183 | -52.35722 | 29 ft | 15 kts | 246° |
| 2026-05-04 21:55 | 4.82143 | -52.35811 | 29 ft | 13 kts | 245° |
| 2026-05-04 21:56 | 4.82107 | -52.35891 | 29 ft | 12 kts | 249° |
| 2026-05-04 21:56 | 4.82124 | -52.35963 | 29 ft | 10 kts | 303° |
| 2026-05-04 21:56 | 4.82161 | -52.36019 | 29 ft | 9 kts | 303° |
| 2026-05-04 21:56 | 4.82190 | -52.36069 | 29 ft | 7 kts | 287° |
| 2026-05-04 21:57 | 4.82182 | -52.36117 | 29 ft | 7 kts | 247° |
| 2026-05-04 21:57 | 4.82161 | -52.36167 | 29 ft | 9 kts | 245° |
| 2026-05-04 21:57 | 4.82133 | -52.36222 | 29 ft | 8 kts | 237° |
| 2026-05-04 21:57 | 4.82106 | -52.36268 | 29 ft | 7 kts | 246° |
| 2026-05-04 21:58 | 4.82087 | -52.36311 | 29 ft | 6 kts | 245° |
| 2026-05-04 21:58 | 4.82092 | -52.36340 | 29 ft | 4 kts | 328° |
| 2026-05-04 21:58 | 4.82117 | -52.36350 | 29 ft | 4 kts | 335° |
| 2026-05-04 21:58 | 4.82139 | -52.36360 | 29 ft | 3 kts | 335° |
| 2026-05-04 21:59 | 4.82153 | -52.36367 | 29 ft | 0 kts | 335° |